Time;durP1;ratioP1;P1;durP2;ratioP2;P2;SDS_P1;SDS_P2;PMS_P1;PMS_P2;Temp;Humidity;BMP_temperature;BMP_pressure;BME280_temperature;BME280_humidity;BME280_pressure;Samples;Min_cycle;Max_cycle;Signal;HPM_P1;HPM_P2
2022/08/10 03:02:51;;;;;;;0.70;0.63;;;21.60;58.80;;;;;;5052475;22;20499;-77
2022/08/10 03:05:19;;;;;;;0.70;0.63;;;21.50;58.90;;;;;;5036440;28;20443;-76
2022/08/10 03:07:50;;;;;;;0.70;0.57;;;21.50;58.90;;;;;;5036140;28;20454;-76
2022/08/10 03:10:19;;;;;;;0.77;0.70;;;21.50;59.10;;;;;;5036075;28;20439;-76
2022/08/10 03:12:49;;;;;;;0.70;0.70;;;21.50;59.00;;;;;;5035905;28;20513;-76
2022/08/10 03:15:19;;;;;;;0.70;0.60;;;21.50;59.00;;;;;;5059758;22;20855;-73
2022/08/10 03:17:46;;;;;;;0.80;0.60;;;21.40;59.20;;;;;;5035277;28;20451;-73
2022/08/10 03:20:15;;;;;;;0.70;0.60;;;21.40;59.30;;;;;;5035177;28;20484;-76
2022/08/10 03:22:44;;;;;;;0.90;0.70;;;21.40;59.60;;;;;;5034671;28;20970;-76
2022/08/10 03:25:13;;;;;;;0.70;0.60;;;21.40;59.50;;;;;;5034898;28;20467;-76
2022/08/10 03:27:40;;;;;;;0.70;0.60;;;21.40;59.60;;;;;;5034958;28;20447;-76
2022/08/10 03:30:09;;;;;;;1.83;0.60;;;21.40;59.70;;;;;;5034816;28;21002;-76
2022/08/10 03:32:36;;;;;;;0.90;0.70;;;21.40;59.50;;;;;;5035093;28;20473;-76
2022/08/10 03:35:05;;;;;;;0.70;0.60;;;21.30;59.60;;;;;;5035042;28;20483;-77
2022/08/10 03:37:33;;;;;;;0.80;0.60;;;21.20;60.00;;;;;;5034518;28;20884;-75
2022/08/10 03:39:59;;;;;;;0.80;0.60;;;21.20;60.20;;;;;;5034552;28;20476;-76
2022/08/10 03:42:27;;;;;;;0.80;0.60;;;21.20;60.20;;;;;;5034544;28;21000;-76
2022/08/10 03:44:55;;;;;;;0.70;0.60;;;21.20;60.30;;;;;;5034685;28;20466;-76
2022/08/10 03:47:24;;;;;;;0.70;0.60;;;21.10;60.40;;;;;;5034584;28;20475;-76
2022/08/10 03:49:51;;;;;;;0.70;0.70;;;21.20;60.30;;;;;;5034500;28;20448;-76
2022/08/10 03:52:19;;;;;;;0.70;0.60;;;21.10;60.20;;;;;;5034469;28;20447;-76
2022/08/10 03:54:50;;;;;;;1.57;0.70;;;21.10;60.40;;;;;;5034378;28;20475;-76
2022/08/10 03:57:17;;;;;;;0.70;0.67;;;21.00;60.60;;;;;;5034559;28;20440;-76
2022/08/10 03:59:44;;;;;;;0.70;0.70;;;21.10;60.60;;;;;;5034248;28;20550;-76
2022/08/10 04:02:12;;;;;;;0.70;0.60;;;21.00;60.80;;;;;;5033890;28;20862;-76
2022/08/10 04:04:38;;;;;;;0.70;0.60;;;21.00;60.70;;;;;;5033154;28;20471;-76
2022/08/10 04:07:05;;;;;;;0.70;0.60;;;21.00;60.60;;;;;;5034276;28;20443;-76
2022/08/10 04:09:35;;;;;;;0.80;0.70;;;21.00;60.80;;;;;;5034268;28;20497;-76
2022/08/10 04:12:04;;;;;;;0.70;0.70;;;21.00;60.80;;;;;;5034251;28;20554;-76
2022/08/10 04:14:30;;;;;;;0.70;0.60;;;21.00;60.80;;;;;;5033798;28;20475;-75
2022/08/10 04:16:57;;;;;;;0.70;0.60;;;21.00;60.90;;;;;;5034184;28;20436;-76
2022/08/10 04:19:26;;;;;;;0.70;0.60;;;21.00;60.80;;;;;;5034067;28;20501;-77
2022/08/10 04:21:59;;;;;;;0.73;0.60;;;21.00;60.80;;;;;;5033812;28;20525;-76
2022/08/10 04:24:27;;;;;;;1.20;0.70;;;21.00;60.90;;;;;;5033765;28;20468;-77
2022/08/10 04:26:54;;;;;;;0.70;0.57;;;21.00;60.90;;;;;;5033515;28;20811;-76
2022/08/10 04:29:22;;;;;;;0.70;0.60;;;21.00;60.90;;;;;;5034095;28;20447;-76
2022/08/10 04:31:51;;;;;;;0.80;0.70;;;21.00;60.80;;;;;;5034075;28;20493;-76
2022/08/10 04:34:20;;;;;;;1.10;0.73;;;21.00;60.80;;;;;;5033966;28;20581;-76
2022/08/10 04:36:49;;;;;;;1.03;0.60;;;21.10;60.60;;;;;;5033754;28;20447;-76
2022/08/10 04:39:16;;;;;;;0.80;0.60;;;21.10;60.90;;;;;;5033578;28;20451;-76
2022/08/10 04:41:43;;;;;;;0.70;0.60;;;21.10;60.80;;;;;;5033394;28;20475;-76
2022/08/10 04:44:10;;;;;;;0.73;0.67;;;21.10;60.70;;;;;;5033505;28;20452;-76
2022/08/10 04:46:38;;;;;;;0.70;0.60;;;21.10;60.30;;;;;;5033378;28;20474;-76
2022/08/10 04:49:04;;;;;;;1.00;0.70;;;21.20;60.90;;;;;;5033811;28;20451;-76
2022/08/10 04:51:31;;;;;;;1.23;0.70;;;21.20;60.80;;;;;;5033326;28;20467;-76
2022/08/10 04:53:58;;;;;;;0.70;0.70;;;21.30;60.80;;;;;;5033483;28;20495;-76
2022/08/10 04:56:24;;;;;;;0.90;0.70;;;21.40;60.80;;;;;;5032987;28;21051;-76
2022/08/10 04:58:51;;;;;;;0.70;0.60;;;21.40;60.40;;;;;;5033281;28;20447;-76
2022/08/10 05:01:18;;;;;;;0.80;0.70;;;21.50;60.50;;;;;;5033158;28;20475;-76
2022/08/10 05:03:46;;;;;;;0.70;0.60;;;21.60;60.20;;;;;;5032745;28;20911;-77
2022/08/10 05:06:12;;;;;;;0.70;0.50;;;21.70;60.20;;;;;;5032861;28;20965;-76
2022/08/10 05:08:39;;;;;;;0.70;0.63;;;21.80;59.30;;;;;;5032997;28;20447;-76
2022/08/10 05:11:06;;;;;;;0.70;0.60;;;21.90;59.10;;;;;;5033257;28;20443;-76
2022/08/10 05:13:33;;;;;;;0.70;0.60;;;22.00;58.80;;;;;;5033736;28;20517;-76
2022/08/10 05:15:59;;;;;;;0.70;0.60;;;22.00;58.40;;;;;;5032520;28;20483;-76
2022/08/10 05:18:26;;;;;;;0.80;0.60;;;22.10;57.90;;;;;;5032741;28;20451;-76
2022/08/10 05:20:54;;;;;;;1.53;0.63;;;22.10;57.00;;;;;;5032973;28;20475;-76
2022/08/10 05:23:21;;;;;;;0.80;0.63;;;22.10;56.90;;;;;;5033325;28;20562;-77
2022/08/10 05:25:47;;;;;;;0.70;0.60;;;22.10;56.40;;;;;;5033218;28;20463;-76
2022/08/10 05:28:14;;;;;;;0.70;0.60;;;22.00;57.00;;;;;;5033176;28;20447;-76
2022/08/10 05:30:41;;;;;;;0.70;0.60;;;22.20;56.50;;;;;;5033160;28;20444;-76
2022/08/10 05:33:08;;;;;;;0.70;0.50;;;22.30;56.60;;;;;;5033126;28;20447;-76
2022/08/10 05:35:35;;;;;;;0.73;0.60;;;22.30;56.20;;;;;;5033061;28;20498;-76
2022/08/10 05:38:04;;;;;;;0.70;0.60;;;22.30;56.60;;;;;;5032803;28;20926;-76
2022/08/10 05:40:31;;;;;;;0.70;0.60;;;22.50;56.20;;;;;;5032972;28;20455;-75
2022/08/10 05:42:58;;;;;;;0.70;0.50;;;22.50;55.50;;;;;;5033004;28;20452;-76
2022/08/10 05:45:26;;;;;;;1.27;0.73;;;22.30;55.30;;;;;;5032910;28;20471;-76
2022/08/10 05:47:54;;;;;;;0.70;0.60;;;22.40;56.30;;;;;;5032651;28;20815;-76
2022/08/10 05:50:24;;;;;;;0.73;0.63;;;22.50;55.40;;;;;;5032928;28;20443;-76
2022/08/10 05:52:51;;;;;;;0.80;0.70;;;22.40;55.60;;;;;;5032615;28;20838;-76
2022/08/10 05:55:19;;;;;;;0.80;0.70;;;22.40;55.70;;;;;;5032912;28;20463;-76
2022/08/10 05:57:47;;;;;;;1.00;0.70;;;22.50;55.00;;;;;;5032599;28;20985;-76
2022/08/10 06:00:18;;;;;;;0.70;0.70;;;22.60;55.90;;;;;;5032874;28;20474;-76
2022/08/10 06:02:48;;;;;;;1.00;0.67;;;22.70;55.10;;;;;;5032990;28;20494;-77
2022/08/10 06:05:19;;;;;;;0.87;0.60;;;22.50;55.30;;;;;;5032441;28;20900;-77
2022/08/10 06:07:50;;;;;;;0.70;0.60;;;22.80;55.10;;;;;;5032608;28;20443;-74
2022/08/10 06:10:21;;;;;;;0.70;0.60;;;22.90;54.00;;;;;;5032628;28;20836;-74
2022/08/10 06:14:59;;;;;;;0.70;0.60;;;23.00;54.40;;;;;;5032726;28;20420;-76
2022/08/10 06:15:36;;;;;;;0.70;0.60;;;23.10;53.30;;;;;;5032277;28;20479;-77
2022/08/10 06:18:04;;;;;;;0.80;0.60;;;23.30;53.30;;;;;;5032725;28;20425;-76
2022/08/10 06:20:31;;;;;;;0.70;0.50;;;23.30;53.10;;;;;;5032711;28;20435;-74
2022/08/10 06:23:00;;;;;;;0.70;0.60;;;23.30;53.20;;;;;;5032815;28;20454;-75
2022/08/10 06:25:29;;;;;;;0.70;0.60;;;23.40;52.80;;;;;;5033292;28;20471;-75
2022/08/10 06:27:57;;;;;;;0.70;0.70;;;23.60;52.60;;;;;;5035424;28;20447;-76
2022/08/10 06:30:25;;;;;;;0.70;0.60;;;23.70;52.40;;;;;;5036486;28;20451;-77
2022/08/10 06:32:55;;;;;;;0.80;0.70;;;23.80;51.80;;;;;;5036484;28;20483;-77
2022/08/10 06:35:23;;;;;;;0.60;0.50;;;24.00;51.70;;;;;;5036372;28;20479;-78
2022/08/10 06:37:51;;;;;;;0.73;0.60;;;24.20;51.70;;;;;;5036007;28;20906;-78
2022/08/10 06:40:18;;;;;;;0.70;0.60;;;24.40;51.50;;;;;;5036158;28;20939;-77
2022/08/10 06:42:48;;;;;;;0.70;0.50;;;24.40;50.40;;;;;;5036254;28;20494;-75
2022/08/10 06:45:18;;;;;;;0.70;0.60;;;24.30;50.90;;;;;;5036250;28;20526;-75
2022/08/10 06:47:48;;;;;;;1.10;0.63;;;24.40;50.60;;;;;;5036327;28;20455;-75
2022/08/10 06:50:18;;;;;;;0.90;0.60;;;24.30;50.80;;;;;;5036184;28;20481;-76
2022/08/10 06:52:47;;;;;;;1.27;0.60;;;24.30;50.80;;;;;;5036069;28;20439;-75
2022/08/10 06:55:15;;;;;;;0.70;0.60;;;24.30;51.30;;;;;;5036096;28;20812;-75
2022/08/10 06:57:43;;;;;;;0.70;0.60;;;24.40;51.00;;;;;;5035993;28;20450;-75
2022/08/10 07:00:14;;;;;;;0.93;0.60;;;24.70;50.20;;;;;;5036006;28;20811;-75
2022/08/10 07:02:49;;;;;;;0.70;0.50;;;24.70;50.10;;;;;;5035888;28;20510;-75
2022/08/10 07:05:19;;;;;;;0.70;0.60;;;24.60;50.90;;;;;;5035481;28;20839;-75
2022/08/10 07:07:49;;;;;;;0.70;0.60;;;24.80;50.00;;;;;;5035468;28;20899;-75
2022/08/10 07:10:19;;;;;;;0.70;0.57;;;24.80;49.90;;;;;;5036737;28;20839;-73
2022/08/10 07:12:50;;;;;;;0.70;0.60;;;24.90;50.60;;;;;;5036072;28;20926;-73
2022/08/10 07:15:19;;;;;;;0.90;0.70;;;24.80;50.20;;;;;;5035633;28;20483;-73
2022/08/10 07:17:47;;;;;;;0.90;0.50;;;24.90;49.90;;;;;;5035623;28;20454;-73
2022/08/10 07:20:17;;;;;;;1.23;0.50;;;25.00;51.10;;;;;;5035490;28;20452;-74
2022/08/10 07:22:47;;;;;;;0.70;0.50;;;25.10;50.20;;;;;;5036624;28;20562;-73
2022/08/10 07:25:16;;;;;;;0.70;0.57;;;25.20;49.80;;;;;;5035377;28;20582;-75
2022/08/10 07:27:44;;;;;;;0.70;0.60;;;25.30;49.80;;;;;;5035392;28;20482;-74
2022/08/10 07:30:11;;;;;;;0.70;0.60;;;25.30;49.70;;;;;;5035344;28;20482;-74
2022/08/10 07:32:40;;;;;;;0.80;0.60;;;25.40;49.30;;;;;;5035625;28;20485;-74
2022/08/10 07:35:11;;;;;;;0.70;0.60;;;25.70;49.50;;;;;;5034949;28;20463;-74
2022/08/10 07:37:39;;;;;;;0.77;0.60;;;25.80;48.90;;;;;;5034661;28;20497;-74
2022/08/10 07:40:09;;;;;;;0.70;0.57;;;25.50;49.30;;;;;;5035421;28;20454;-75
2022/08/10 07:42:37;;;;;;;0.90;0.67;;;25.50;49.50;;;;;;5035170;28;20475;-75
2022/08/10 07:45:06;;;;;;;1.03;0.60;;;25.70;49.00;;;;;;5035238;28;20494;-73
2022/08/10 07:47:37;;;;;;;0.70;0.70;;;25.90;48.40;;;;;;5035263;28;20459;-72
2022/08/10 07:50:09;;;;;;;0.70;0.50;;;25.80;48.70;;;;;;5034824;28;20515;-73
2022/08/10 07:52:37;;;;;;;1.27;0.50;;;26.00;48.80;;;;;;5035226;28;20428;-73
2022/08/10 07:55:06;;;;;;;0.70;0.63;;;26.00;48.70;;;;;;5034848;28;20467;-74
2022/08/10 07:57:36;;;;;;;0.80;0.60;;;26.20;48.80;;;;;;5034597;28;20452;-73
2022/08/10 08:00:05;;;;;;;0.70;0.60;;;26.30;48.20;;;;;;5035145;28;20450;-73
2022/08/10 08:02:37;;;;;;;0.70;0.60;;;26.30;48.00;;;;;;5034571;28;20480;-73
2022/08/10 08:05:08;;;;;;;1.10;0.70;;;26.30;48.60;;;;;;5034717;28;20463;-74
2022/08/10 08:07:36;;;;;;;0.70;0.60;;;26.30;48.10;;;;;;5034892;28;20447;-73
2022/08/10 08:10:06;;;;;;;0.70;0.53;;;26.20;48.30;;;;;;5034576;28;20447;-74
2022/08/10 08:12:34;;;;;;;0.90;0.70;;;26.20;48.10;;;;;;5034630;28;20443;-71
2022/08/10 08:15:02;;;;;;;0.70;0.60;;;26.20;48.10;;;;;;5034386;28;20583;-72
2022/08/10 08:17:30;;;;;;;0.70;0.60;;;26.40;48.70;;;;;;5034544;28;20451;-72
2022/08/10 08:19:59;;;;;;;0.80;0.70;;;26.50;47.90;;;;;;5034133;28;20934;-72
2022/08/10 08:22:28;;;;;;;0.93;0.70;;;26.50;47.80;;;;;;5034301;28;20841;-72
2022/08/10 08:24:57;;;;;;;0.80;0.60;;;26.60;47.20;;;;;;5034212;28;20513;-73
2022/08/10 08:27:25;;;;;;;0.70;0.60;;;26.30;48.00;;;;;;5034309;28;20863;-73
2022/08/10 08:29:53;;;;;;;0.70;0.60;;;26.30;47.90;;;;;;5034345;28;20451;-73
2022/08/10 08:32:22;;;;;;;0.73;0.67;;;26.30;48.30;;;;;;5034094;28;20451;-73
2022/08/10 08:34:53;;;;;;;1.13;0.80;;;26.30;48.00;;;;;;5033796;28;21057;-74
2022/08/10 08:37:22;;;;;;;1.00;0.70;;;26.30;48.00;;;;;;5034324;28;20466;-72
2022/08/10 08:39:50;;;;;;;0.70;0.50;;;26.40;48.00;;;;;;5034011;28;20477;-74
2022/08/10 08:42:37;;;;;;;0.70;0.60;;;26.20;48.60;;;;;;5034029;28;20483;-73
2022/08/10 08:45:15;;;;;;;0.80;0.60;;;26.30;47.30;;;;;;5033984;28;20472;-73
2022/08/10 08:48:16;;;;;;;1.00;0.60;;;26.30;47.40;;;;;;5034027;28;20455;-72
2022/08/10 08:50:58;;;;;;;0.80;0.60;;;26.40;47.40;;;;;;5033408;28;20432;-72
2022/08/10 08:53:37;;;;;;;0.90;0.50;;;26.60;46.90;;;;;;5033889;28;20494;-72
2022/08/10 08:56:14;;;;;;;0.70;0.60;;;26.60;46.60;;;;;;5033656;28;20529;-72
2022/08/10 08:58:56;;;;;;;0.70;0.60;;;26.50;46.50;;;;;;5033754;28;20456;-71
2022/08/10 09:01:36;;;;;;;0.70;0.60;;;26.60;46.40;;;;;;5033763;28;20490;-72
2022/08/10 09:04:28;;;;;;;1.00;0.77;;;26.70;46.70;;;;;;5033786;28;20510;-73
2022/08/10 09:07:25;;;;;;;1.00;0.60;;;26.80;45.90;;;;;;5033302;28;20834;-72
2022/08/10 09:10:00;;;;;;;0.70;0.50;;;26.60;44.80;;;;;;5033458;28;20509;-72
2022/08/10 09:12:49;;;;;;;0.70;0.60;;;26.40;44.90;;;;;;5033739;28;20565;-72
2022/08/10 09:15:21;;;;;;;0.70;0.60;;;26.50;46.70;;;;;;5057635;23;20491;-77
2022/08/10 09:18:08;;;;;;;0.70;0.50;;;26.60;44.80;;;;;;5034126;28;20482;-77
2022/08/10 09:20:40;;;;;;;0.70;0.60;;;26.60;45.40;;;;;;5034315;28;20428;-76
2022/08/10 09:23:13;;;;;;;1.23;0.70;;;26.60;45.20;;;;;;5034688;28;20471;-76
2022/08/10 09:25:51;;;;;;;0.77;0.63;;;26.40;44.10;;;;;;5033881;28;20529;-77
2022/08/10 09:28:23;;;;;;;2.83;0.67;;;26.20;45.00;;;;;;5033907;28;20836;-77
2022/08/10 09:30:57;;;;;;;0.70;0.50;;;26.20;44.80;;;;;;5034573;28;20431;-74
2022/08/10 09:33:30;;;;;;;0.70;0.60;;;26.30;45.00;;;;;;5035281;28;20428;-74
2022/08/10 09:36:06;;;;;;;0.70;0.60;;;26.40;45.50;;;;;;5034974;28;20471;-73
2022/08/10 09:38:42;;;;;;;0.80;0.70;;;26.70;45.20;;;;;;5035515;28;20436;-73
2022/08/10 09:41:22;;;;;;;0.70;0.60;;;27.10;45.00;;;;;;5034242;28;20435;-75
2022/08/10 09:43:58;;;;;;;0.70;0.60;;;27.20;43.80;;;;;;5034226;28;20577;-75
2022/08/10 09:46:39;;;;;;;0.70;0.60;;;27.40;43.50;;;;;;5033805;28;20467;-74
2022/08/10 09:49:19;;;;;;;0.70;0.60;;;27.30;42.70;;;;;;5033938;28;20436;-74
2022/08/10 09:51:54;;;;;;;0.80;0.50;;;27.00;43.50;;;;;;5033465;28;20435;-74
2022/08/10 09:54:29;;;;;;;0.80;0.60;;;26.60;44.10;;;;;;5034199;28;20831;-74
2022/08/10 09:57:05;;;;;;;0.70;0.67;;;26.80;43.80;;;;;;5033792;28;20466;-74
2022/08/10 09:59:40;;;;;;;0.70;0.60;;;26.80;44.00;;;;;;5034102;28;20431;-74
2022/08/10 10:02:18;;;;;;;0.70;0.60;;;27.00;43.80;;;;;;5034985;28;20458;-74
2022/08/10 10:04:58;;;;;;;0.80;0.70;;;27.10;43.20;;;;;;5037225;28;20943;-75
2022/08/10 10:07:27;;;;;;;0.70;0.50;;;27.30;42.60;;;;;;5037568;28;20439;-75
2022/08/10 10:10:01;;;;;;;0.70;0.60;;;27.50;42.10;;;;;;5037523;28;20505;-75
2022/08/10 10:12:38;;;;;;;0.90;0.70;;;27.80;42.90;;;;;;5037815;28;20424;-75
2022/08/10 10:15:22;;;;;;;0.77;0.60;;;28.20;42.10;;;;;;5037369;28;20513;-75
2022/08/10 10:18:07;;;;;;;0.97;0.70;;;28.40;41.40;;;;;;5037888;28;20462;-74
2022/08/10 10:20:40;;;;;;;1.23;0.77;;;28.20;41.20;;;;;;5037402;28;20837;-74
2022/08/10 10:23:29;;;;;;;1.00;0.70;;;27.70;41.50;;;;;;5037340;28;20473;-76
2022/08/10 10:26:03;;;;;;;0.90;0.60;;;27.50;42.10;;;;;;5038293;28;20471;-74
2022/08/10 10:28:40;;;;;;;0.70;0.50;;;27.70;42.10;;;;;;5037841;28;20493;-73
2022/08/10 10:31:16;;;;;;;0.67;0.50;;;27.80;41.70;;;;;;5037551;28;20511;-74
2022/08/10 10:33:51;;;;;;;0.70;0.60;;;27.70;42.00;;;;;;5037164;28;20462;-74
2022/08/10 10:36:19;;;;;;;1.40;0.70;;;27.70;41.80;;;;;;5037029;28;20543;-75
2022/08/10 10:38:48;;;;;;;0.70;0.60;;;27.80;41.60;;;;;;5037123;28;20447;-75
2022/08/10 10:41:35;;;;;;;2.40;0.60;;;27.90;41.70;;;;;;5037484;28;20450;-74
2022/08/10 10:44:19;;;;;;;0.60;0.50;;;28.10;40.50;;;;;;5036831;28;20471;-75
2022/08/10 10:46:57;;;;;;;0.70;0.50;;;28.00;41.30;;;;;;5037026;28;20566;-74
2022/08/10 10:49:42;;;;;;;0.70;0.60;;;27.90;41.30;;;;;;5036501;28;20427;-74
2022/08/10 10:52:18;;;;;;;0.70;0.60;;;28.00;40.80;;;;;;5037067;28;20459;-73
2022/08/10 10:54:56;;;;;;;0.80;0.60;;;28.00;40.50;;;;;;5036929;28;20419;-75
2022/08/10 10:57:29;;;;;;;0.90;0.67;;;28.00;40.60;;;;;;5037062;28;20442;-74
2022/08/10 11:00:02;;;;;;;0.80;0.60;;;28.20;40.30;;;;;;5036260;28;20973;-74
2022/08/10 11:02:43;;;;;;;0.70;0.50;;;28.50;40.70;;;;;;5036830;28;20467;-74
2022/08/10 11:05:26;;;;;;;0.70;0.70;;;28.80;40.70;;;;;;5036621;28;20467;-75
2022/08/10 11:07:59;;;;;;;0.70;0.50;;;29.00;40.10;;;;;;5037405;28;20440;-75
2022/08/10 11:10:31;;;;;;;0.90;0.60;;;28.90;40.10;;;;;;5036688;28;20438;-75
2022/08/10 11:13:12;;;;;;;0.90;0.70;;;28.90;40.00;;;;;;5035559;28;20432;-75
2022/08/10 11:15:44;;;;;;;0.70;0.50;;;29.10;40.30;;;;;;5036089;28;20483;-75
2022/08/10 11:18:22;;;;;;;0.70;0.60;;;29.30;39.80;;;;;;5036492;28;20493;-75
2022/08/10 11:21:00;;;;;;;0.80;0.60;;;29.40;39.60;;;;;;5036406;28;20427;-74
2022/08/10 11:23:36;;;;;;;0.70;0.50;;;29.60;39.10;;;;;;5036044;28;20467;-75
2022/08/10 11:26:11;;;;;;;0.70;0.50;;;29.20;38.60;;;;;;5036334;28;20497;-75
2022/08/10 11:28:43;;;;;;;0.70;0.60;;;29.30;38.50;;;;;;5036843;28;20431;-74
2022/08/10 11:31:19;;;;;;;0.70;0.60;;;29.40;37.90;;;;;;5036640;28;20482;-75
2022/08/10 11:33:57;;;;;;;0.70;0.50;;;29.50;38.90;;;;;;5036599;28;20427;-76
2022/08/10 11:36:29;;;;;;;0.70;0.60;;;29.50;38.30;;;;;;5036382;28;20494;-74
2022/08/10 11:39:02;;;;;;;0.70;0.60;;;29.90;38.30;;;;;;5037205;28;20440;-74
2022/08/10 11:41:46;;;;;;;0.80;0.60;;;30.10;37.50;;;;;;5035759;28;20787;-75
2022/08/10 11:44:25;;;;;;;0.80;0.60;;;30.10;37.70;;;;;;5036253;28;20525;-75
2022/08/10 11:46:57;;;;;;;0.70;0.60;;;30.10;38.60;;;;;;5035570;28;20970;-73
2022/08/10 11:49:31;;;;;;;0.80;0.70;;;30.20;37.50;;;;;;5035834;28;20454;-73
2022/08/10 11:52:03;;;;;;;0.70;0.60;;;30.00;38.00;;;;;;5036544;28;20432;-72
2022/08/10 11:54:35;;;;;;;0.80;0.60;;;29.80;38.00;;;;;;5035480;28;20416;-73
2022/08/10 11:57:02;;;;;;;0.70;0.60;;;29.80;38.20;;;;;;5035324;28;20842;-72
2022/08/10 12:02:19;;;;;;;0.70;0.50;;;29.80;38.70;;;;;;5035239;28;20403;-74
2022/08/10 12:04:51;;;;;;;0.77;0.60;;;30.00;38.00;;;;;;5035578;28;20440;-74
2022/08/10 12:07:20;;;;;;;0.70;0.60;;;29.40;37.90;;;;;;5037628;28;20882;-74
2022/08/10 12:09:48;;;;;;;0.80;0.70;;;29.30;37.90;;;;;;5035465;28;20530;-73
2022/08/10 12:12:16;;;;;;;0.90;0.60;;;29.60;38.30;;;;;;5036105;28;20542;-73
2022/08/10 12:14:50;;;;;;;0.70;0.60;;;29.40;38.10;;;;;;5035885;28;20455;-74
2022/08/10 12:17:23;;;;;;;0.70;0.50;;;29.60;38.40;;;;;;5035614;28;20899;-75
2022/08/10 12:19:57;;;;;;;0.70;0.50;;;29.80;37.80;;;;;;5035932;28;20432;-74
2022/08/10 12:22:30;;;;;;;0.70;0.57;;;29.60;37.90;;;;;;5034783;28;20482;-74
2022/08/10 12:25:00;;;;;;;0.70;0.60;;;29.90;38.20;;;;;;5033945;28;20432;-74
2022/08/10 12:27:34;;;;;;;0.70;0.53;;;30.10;36.60;;;;;;5034598;28;20444;-74
2022/08/10 12:30:05;;;;;;;0.70;0.60;;;30.20;37.00;;;;;;5034670;28;20428;-74
2022/08/10 12:32:41;;;;;;;0.70;0.60;;;30.30;36.50;;;;;;5034616;28;20499;-75
2022/08/10 12:35:18;;;;;;;1.00;0.60;;;30.30;36.70;;;;;;5034509;28;20521;-74
2022/08/10 12:37:50;;;;;;;1.07;0.60;;;30.30;36.70;;;;;;5034147;28;20782;-74
2022/08/10 12:40:21;;;;;;;0.70;0.60;;;30.40;36.70;;;;;;5034701;28;20474;-74
2022/08/10 12:42:54;;;;;;;0.70;0.60;;;30.60;37.20;;;;;;5034320;28;20479;-74
2022/08/10 12:45:31;;;;;;;0.80;0.50;;;30.70;36.50;;;;;;5034342;28;20866;-74
2022/08/10 12:48:03;;;;;;;0.70;0.60;;;30.50;36.30;;;;;;5034057;28;20482;-74
2022/08/10 12:50:39;;;;;;;0.70;0.60;;;30.40;36.40;;;;;;5034229;28;20464;-74
2022/08/10 12:53:17;;;;;;;1.03;0.53;;;30.60;36.20;;;;;;5034196;28;20423;-75
2022/08/10 12:55:45;;;;;;;0.70;0.50;;;30.50;36.20;;;;;;5034645;28;20498;-74
2022/08/10 12:58:13;;;;;;;0.80;0.60;;;29.90;36.70;;;;;;5034499;28;20494;-74
2022/08/10 13:00:43;;;;;;;0.70;0.50;;;29.40;37.60;;;;;;5033969;28;20450;-74
2022/08/10 13:03:11;;;;;;;1.57;0.60;;;29.40;37.60;;;;;;5034058;28;20574;-75
2022/08/10 13:05:40;;;;;;;0.70;0.60;;;29.40;37.70;;;;;;5034126;28;20475;-73
2022/08/10 13:11:01;;;;;;;0.70;0.60;;;29.60;37.60;;;;;;5034208;28;20913;-74
2022/08/10 13:13:34;;;;;;;0.70;0.70;;;29.70;37.50;;;;;;5033900;28;20497;-74
2022/08/10 13:16:02;;;;;;;1.07;0.60;;;29.70;37.50;;;;;;5033492;28;20483;-74
2022/08/10 13:18:33;;;;;;;0.70;0.53;;;29.80;37.70;;;;;;5034134;28;20831;-74
2022/08/10 13:21:05;;;;;;;0.70;0.60;;;29.70;37.30;;;;;;5033976;28;20428;-74
2022/08/10 13:23:37;;;;;;;0.70;0.60;;;29.70;37.60;;;;;;5033908;28;20471;-74
2022/08/10 13:26:05;;;;;;;1.03;0.70;;;29.70;37.10;;;;;;5033535;28;20881;-74
2022/08/10 13:28:38;;;;;;;0.70;0.60;;;30.00;37.30;;;;;;5033542;28;20525;-74
2022/08/10 13:31:09;;;;;;;0.80;0.70;;;30.30;36.90;;;;;;5033612;28;20432;-75
2022/08/10 13:33:40;;;;;;;0.80;0.60;;;30.60;36.80;;;;;;5033638;28;20432;-74
2022/08/10 13:36:09;;;;;;;0.70;0.50;;;30.90;36.50;;;;;;5033855;28;20471;-74
2022/08/10 13:38:38;;;;;;;0.80;0.60;;;30.40;35.70;;;;;;5033975;28;20452;-74
2022/08/10 13:41:05;;;;;;;1.00;0.60;;;29.90;35.90;;;;;;5034443;28;20539;-74
2022/08/10 13:43:32;;;;;;;0.70;0.50;;;29.50;36.70;;;;;;5033511;28;20475;-75
2022/08/10 13:46:00;;;;;;;0.80;0.50;;;29.80;36.70;;;;;;5034211;28;20463;-72
2022/08/10 13:48:29;;;;;;;0.70;0.70;;;29.90;36.60;;;;;;5034267;28;20505;-74
2022/08/10 13:50:59;;;;;;;0.70;0.60;;;29.80;37.30;;;;;;5034373;28;20863;-74
2022/08/10 13:53:31;;;;;;;0.70;0.60;;;29.70;36.70;;;;;;5033587;28;20527;-75
2022/08/10 13:55:59;;;;;;;0.70;0.60;;;29.30;36.90;;;;;;5034052;28;20538;-75
2022/08/10 13:58:29;;;;;;;0.70;0.60;;;29.20;36.80;;;;;;5033127;28;20455;-75
2022/08/10 14:00:58;;;;;;;0.80;0.60;;;29.30;37.00;;;;;;5033647;28;20447;-75
2022/08/10 14:03:27;;;;;;;0.70;0.63;;;29.30;37.40;;;;;;5033078;28;20533;-74
2022/08/10 14:05:55;;;;;;;0.70;0.60;;;29.60;36.80;;;;;;5033405;28;20468;-75
2022/08/10 14:08:25;;;;;;;1.10;0.60;;;29.60;36.80;;;;;;5032876;28;20505;-76
2022/08/10 14:10:59;;;;;;;0.80;0.60;;;29.60;36.90;;;;;;5033118;28;20443;-77
2022/08/10 14:13:28;;;;;;;0.73;0.57;;;29.80;36.20;;;;;;5033957;28;20423;-73
2022/08/10 14:15:57;;;;;;;0.70;0.57;;;30.00;36.30;;;;;;5034279;28;20518;-75
2022/08/10 14:18:24;;;;;;;0.70;0.60;;;30.20;36.00;;;;;;5034078;28;20452;-74
2022/08/10 14:20:53;;;;;;;0.70;0.60;;;30.30;36.20;;;;;;5033660;28;20452;-74
2022/08/10 14:23:20;;;;;;;0.70;0.50;;;30.50;35.80;;;;;;5033525;28;20486;-74
2022/08/10 14:25:50;;;;;;;1.43;0.60;;;30.30;35.70;;;;;;5033071;28;20880;-75
2022/08/10 14:28:21;;;;;;;0.70;0.50;;;30.00;37.00;;;;;;5033057;28;20446;-74
2022/08/10 14:30:55;;;;;;;0.90;0.53;;;30.30;36.70;;;;;;5033002;28;20424;-76
2022/08/10 14:33:25;;;;;;;0.70;0.60;;;30.70;35.90;;;;;;5033160;28;20511;-75
2022/08/10 14:35:52;;;;;;;0.70;0.60;;;31.00;35.80;;;;;;5033295;28;21028;-75
2022/08/10 14:38:22;;;;;;;0.70;0.60;;;31.10;35.20;;;;;;5036473;28;20459;-74
2022/08/10 14:40:52;;;;;;;0.70;0.60;;;30.90;34.80;;;;;;5033022;28;20454;-74
2022/08/10 14:43:23;;;;;;;0.90;0.70;;;30.70;35.30;;;;;;5032544;28;20990;-74
2022/08/10 14:45:57;;;;;;;0.80;0.60;;;30.40;35.80;;;;;;5033069;28;20471;-73
2022/08/10 14:48:30;;;;;;;0.70;0.60;;;30.60;35.70;;;;;;5037709;28;20436;-75
2022/08/10 14:50:58;;;;;;;0.80;0.60;;;30.60;34.90;;;;;;5039455;28;20466;-74
2022/08/10 14:53:26;;;;;;;0.70;0.60;;;30.20;35.30;;;;;;5038405;28;20450;-74
2022/08/10 14:55:56;;;;;;;0.90;0.60;;;30.10;35.00;;;;;;5036417;28;20474;-74
2022/08/10 14:58:26;;;;;;;0.70;0.60;;;29.90;35.40;;;;;;5036962;28;20467;-74
2022/08/10 15:00:55;;;;;;;0.70;0.60;;;30.10;35.30;;;;;;5038370;28;20444;-74
2022/08/10 15:03:25;;;;;;;0.70;0.60;;;30.00;36.20;;;;;;5037538;28;20447;-74
2022/08/10 15:05:54;;;;;;;0.70;0.60;;;29.90;35.50;;;;;;5037378;28;20468;-76
2022/08/10 15:08:24;;;;;;;0.70;0.50;;;30.00;35.70;;;;;;5036494;28;20443;-77
2022/08/10 15:10:55;;;;;;;0.80;0.60;;;30.10;35.30;;;;;;5036162;28;20441;-77
2022/08/10 15:13:24;;;;;;;0.90;0.60;;;30.30;35.20;;;;;;5036077;28;20424;-78
2022/08/10 15:15:53;;;;;;;0.70;0.50;;;30.90;34.70;;;;;;5059872;22;20545;-72
2022/08/10 15:18:21;;;;;;;0.70;0.50;;;31.00;34.00;;;;;;5035635;28;20450;-72
2022/08/10 15:20:54;;;;;;;0.70;0.50;;;31.30;33.80;;;;;;5035260;28;20479;-72
2022/08/10 15:23:21;;;;;;;0.70;0.60;;;31.50;33.30;;;;;;5035533;28;20463;-71
2022/08/10 15:25:51;;;;;;;1.00;0.50;;;32.10;33.50;;;;;;5035743;28;20523;-72
2022/08/10 15:28:19;;;;;;;0.60;0.50;;;32.40;32.60;;;;;;5035474;28;20443;-71
2022/08/10 15:30:51;;;;;;;0.90;0.60;;;32.70;32.10;;;;;;5034952;28;20930;-73
2022/08/10 15:38:58;;;;;;;0.73;0.60;;;33.60;31.60;;;;;;5035628;28;20400;-72
2022/08/10 15:41:36;;;;;;;0.70;0.60;;;33.40;31.10;;;;;;5035282;28;20498;-72
2022/08/10 15:44:04;;;;;;;0.70;0.57;;;33.00;31.70;;;;;;5035216;28;20467;-72
2022/08/10 15:46:41;;;;;;;0.70;0.60;;;32.30;32.90;;;;;;5035165;28;20463;-72
2022/08/10 15:49:15;;;;;;;0.70;0.60;;;32.00;33.00;;;;;;5035262;28;20794;-73
2022/08/10 15:51:47;;;;;;;0.80;0.60;;;31.60;33.20;;;;;;5034857;28;20900;-73
2022/08/10 15:54:17;;;;;;;0.90;0.60;;;31.10;33.80;;;;;;5035354;28;20431;-73
2022/08/10 15:56:48;;;;;;;0.70;0.60;;;30.80;34.70;;;;;;5035260;28;20463;-71
2022/08/10 15:59:24;;;;;;;0.70;0.57;;;30.20;35.20;;;;;;5035605;28;20436;-73
2022/08/10 16:01:55;;;;;;;0.70;0.57;;;29.90;35.80;;;;;;5034874;28;20443;-72
2022/08/10 16:04:28;;;;;;;0.70;0.60;;;29.90;36.20;;;;;;5034925;28;20526;-73
2022/08/10 16:07:00;;;;;;;0.70;0.60;;;29.70;36.40;;;;;;5035009;28;20471;-74
2022/08/10 16:09:29;;;;;;;0.70;0.60;;;29.40;36.00;;;;;;5034463;28;20844;-74
2022/08/10 16:12:01;;;;;;;0.70;0.60;;;29.10;36.70;;;;;;5034709;28;20447;-71
2022/08/10 16:14:34;;;;;;;0.80;0.70;;;29.10;36.80;;;;;;5034773;28;20424;-72
2022/08/10 16:17:08;;;;;;;0.80;0.50;;;29.00;36.60;;;;;;5034548;28;20908;-72
2022/08/10 16:19:37;;;;;;;0.80;0.60;;;28.80;36.70;;;;;;5034802;28;20430;-72
2022/08/10 16:22:07;;;;;;;0.80;0.70;;;29.00;36.60;;;;;;5034768;28;20454;-72